createdAt,value
2022-09-15T00:01:02.920Z,18.00
2022-09-15T00:03:30.040Z,18.00
2022-09-15T00:05:56.972Z,17.90
2022-09-15T00:08:24.955Z,18.00
2022-09-15T00:11:18.254Z,17.90
2022-09-15T00:13:45.867Z,17.90
2022-09-15T00:16:15.444Z,18.00
2022-09-15T00:18:44.022Z,18.00
2022-09-15T00:21:14.509Z,18.00
2022-09-15T00:23:41.626Z,18.00
2022-09-15T00:26:10.472Z,18.00
2022-09-15T00:28:37.798Z,18.00
2022-09-15T00:31:09.342Z,18.00
2022-09-15T00:33:36.848Z,18.00
2022-09-15T00:36:06.564Z,18.00
2022-09-15T00:38:34.904Z,18.00
2022-09-15T00:41:02.812Z,18.00
2022-09-15T00:43:52.601Z,18.00
2022-09-15T00:46:41.263Z,18.00
2022-09-15T00:49:36.834Z,17.90
2022-09-15T00:52:17.848Z,18.00
2022-09-15T00:55:08.349Z,17.90
2022-09-15T00:57:57.267Z,17.90
2022-09-15T01:00:26.636Z,18.00
2022-09-15T01:02:53.882Z,18.00
2022-09-15T01:05:25.772Z,18.00
2022-09-15T01:08:04.345Z,18.00
2022-09-15T01:10:41.325Z,18.00
2022-09-15T01:13:12.160Z,18.00
2022-09-15T01:15:57.530Z,18.00
2022-09-15T01:18:37.558Z,18.00
2022-09-15T01:21:17.549Z,17.90
2022-09-15T01:24:14.337Z,17.90
2022-09-15T01:26:42.326Z,17.90
2022-09-15T01:29:36.322Z,17.90
2022-09-15T01:32:47.314Z,17.90
2022-09-15T01:35:33.884Z,17.90
2022-09-15T01:38:28.431Z,17.90
2022-09-15T01:41:25.543Z,17.90
2022-09-15T01:44:35.241Z,17.90
2022-09-15T01:47:09.516Z,17.90
2022-09-15T01:50:00.807Z,17.90
2022-09-15T01:52:29.273Z,17.90
2022-09-15T01:55:00.405Z,18.00
2022-09-15T01:57:28.166Z,18.00
2022-09-15T01:59:56.215Z,18.00
2022-09-15T02:02:34.331Z,17.90
2022-09-15T02:05:13.680Z,17.90
2022-09-15T02:08:20.886Z,17.90
2022-09-15T02:10:57.650Z,17.90
2022-09-15T02:14:11.607Z,17.90
2022-09-15T02:16:42.023Z,17.80
2022-09-15T02:19:11.983Z,17.90
2022-09-15T02:21:53.355Z,17.80
2022-09-15T02:24:30.801Z,17.90
2022-09-15T02:26:59.606Z,17.90
2022-09-15T02:29:28.291Z,17.90
2022-09-15T02:31:57.981Z,17.90
2022-09-15T02:34:29.644Z,17.90
2022-09-15T02:36:57.278Z,17.80
2022-09-15T02:39:31.166Z,17.80
2022-09-15T02:41:59.866Z,17.80
2022-09-15T02:44:27.155Z,17.80
2022-09-15T02:46:54.148Z,17.80
2022-09-15T02:49:21.081Z,17.80
2022-09-15T02:51:48.405Z,17.80
2022-09-15T02:54:15.421Z,17.80
2022-09-15T02:56:42.331Z,17.80
2022-09-15T02:59:09.560Z,17.80
2022-09-15T03:01:36.552Z,17.80
2022-09-15T03:04:04.763Z,17.80
2022-09-15T03:06:35.225Z,17.80
2022-09-15T03:09:07.943Z,17.80
2022-09-15T03:11:36.192Z,17.80
2022-09-15T03:14:06.099Z,17.80
2022-09-15T03:16:34.691Z,17.80
2022-09-15T03:19:02.161Z,17.80
2022-09-15T03:21:30.037Z,17.80
2022-09-15T03:23:58.747Z,17.70
2022-09-15T03:26:26.142Z,17.70
2022-09-15T03:28:53.603Z,17.70
2022-09-15T03:31:21.357Z,17.70
2022-09-15T03:33:49.249Z,17.80
2022-09-15T03:36:16.292Z,17.80
2022-09-15T03:38:43.230Z,17.80
2022-09-15T03:41:13.480Z,17.70
2022-09-15T03:43:40.561Z,17.80
2022-09-15T03:46:09.082Z,17.80
2022-09-15T03:48:37.083Z,17.80
2022-09-15T03:51:05.856Z,17.80
2022-09-15T03:53:34.702Z,17.80
2022-09-15T03:56:33.069Z,17.80
2022-09-15T03:59:01.869Z,17.60
2022-09-15T04:01:30.486Z,17.60
2022-09-15T04:03:57.990Z,17.50
2022-09-15T04:06:26.303Z,17.50
2022-09-15T04:08:54.051Z,17.40
2022-09-15T04:11:22.288Z,17.40
2022-09-15T04:13:49.804Z,17.40
2022-09-15T04:16:19.465Z,17.40
2022-09-15T04:18:46.836Z,17.40
2022-09-15T04:21:16.222Z,17.40
2022-09-15T04:23:43.766Z,17.40
2022-09-15T04:26:27.548Z,17.40
2022-09-15T04:28:54.484Z,17.40
2022-09-15T04:31:21.528Z,17.40
2022-09-15T04:33:51.628Z,17.40
2022-09-15T04:36:21.259Z,17.40
2022-09-15T04:38:49.036Z,17.40
2022-09-15T04:41:16.133Z,17.40
2022-09-15T04:43:43.537Z,17.40
2022-09-15T04:46:11.071Z,17.40
2022-09-15T04:48:38.105Z,17.40
2022-09-15T04:51:11.292Z,17.40
2022-09-15T04:53:38.872Z,17.40
2022-09-15T04:56:08.848Z,17.40
2022-09-15T04:58:41.615Z,17.40
2022-09-15T05:01:14.623Z,17.30
2022-09-15T05:03:42.452Z,17.10
2022-09-15T05:06:11.784Z,17.00
2022-09-15T05:08:39.519Z,17.00
2022-09-15T05:11:09.333Z,16.90
2022-09-15T05:13:37.330Z,16.90
2022-09-15T05:16:12.828Z,16.80
2022-09-15T05:18:41.016Z,16.80
2022-09-15T05:21:10.290Z,16.80
2022-09-15T05:23:38.476Z,16.80
2022-09-15T05:26:14.504Z,16.80
2022-09-15T05:28:41.847Z,16.80
2022-09-15T05:31:11.626Z,16.80
2022-09-15T05:33:38.854Z,16.80
2022-09-15T05:36:07.489Z,16.80
2022-09-15T05:38:34.480Z,16.80
2022-09-15T05:41:10.317Z,16.80
2022-09-15T05:43:38.460Z,16.70
2022-09-15T05:46:06.639Z,16.70
2022-09-15T05:48:34.350Z,16.70
2022-09-15T05:51:01.690Z,16.70
2022-09-15T05:53:28.828Z,16.70
2022-09-15T05:56:00.873Z,16.70
2022-09-15T05:58:28.155Z,16.70
2022-09-15T06:00:55.702Z,16.60
2022-09-15T06:03:27.494Z,16.60
2022-09-15T06:06:01.501Z,16.60
2022-09-15T06:08:37.065Z,16.60
2022-09-15T06:11:10.130Z,16.60
2022-09-15T06:13:37.359Z,16.60
2022-09-15T06:16:10.300Z,16.60
2022-09-15T06:18:38.930Z,16.60
2022-09-15T06:21:11.377Z,16.60
2022-09-15T06:23:39.046Z,16.60
2022-09-15T06:26:15.485Z,16.60
2022-09-15T06:28:47.522Z,16.60
2022-09-15T06:31:15.360Z,16.60
2022-09-15T06:33:44.184Z,16.60
2022-09-15T06:36:15.777Z,16.60
2022-09-15T06:38:43.282Z,16.60
2022-09-15T06:41:10.996Z,16.60
2022-09-15T06:43:38.709Z,16.60
2022-09-15T06:46:11.222Z,16.60
2022-09-15T06:48:38.872Z,16.60
2022-09-15T06:51:07.366Z,16.60
2022-09-15T06:53:36.260Z,16.60
2022-09-15T06:56:05.797Z,16.60
2022-09-15T06:58:35.198Z,16.60
2022-09-15T07:01:04.249Z,16.60
2022-09-15T07:03:31.892Z,16.70
2022-09-15T07:05:58.821Z,16.70
2022-09-15T07:08:25.820Z,16.70
2022-09-15T07:10:52.829Z,16.70
2022-09-15T07:13:19.741Z,16.70
2022-09-15T07:15:58.024Z,16.70
2022-09-15T07:18:25.877Z,16.60
2022-09-15T07:20:54.144Z,16.60
2022-09-15T07:23:21.095Z,16.70
2022-09-15T07:25:47.979Z,16.70
2022-09-15T07:28:15.974Z,16.80
2022-09-15T07:30:43.765Z,16.80
2022-09-15T07:33:13.269Z,16.90
2022-09-15T07:35:44.586Z,16.90
2022-09-15T07:38:11.887Z,16.90
2022-09-15T07:40:39.215Z,17.00
2022-09-15T07:43:06.802Z,17.10
2022-09-15T07:45:36.170Z,17.10
2022-09-15T07:48:03.540Z,17.10
2022-09-15T07:50:30.618Z,17.10
2022-09-15T07:52:57.612Z,17.10
2022-09-15T07:55:24.654Z,17.20
2022-09-15T07:58:01.793Z,17.20
2022-09-15T08:00:29.445Z,17.20
2022-09-15T08:02:56.805Z,17.10
2022-09-15T08:05:28.504Z,17.10
2022-09-15T08:07:56.264Z,17.00
2022-09-15T08:10:26.182Z,17.00
2022-09-15T08:12:53.404Z,17.00
2022-09-15T08:15:20.736Z,16.90
2022-09-15T08:17:47.872Z,16.90
2022-09-15T08:20:14.909Z,16.90
2022-09-15T08:22:42.255Z,16.90
2022-09-15T08:25:09.567Z,16.90
2022-09-15T08:27:36.526Z,16.90
2022-09-15T08:30:04.160Z,16.90
2022-09-15T08:32:31.081Z,17.00
2022-09-15T08:34:58.018Z,17.00
2022-09-15T08:37:25.039Z,17.00
2022-09-15T08:39:52.291Z,17.10
2022-09-15T08:42:20.968Z,17.30
2022-09-15T08:44:56.553Z,17.30
2022-09-15T08:47:39.654Z,17.40
2022-09-15T08:50:27.429Z,17.50
2022-09-15T08:52:58.115Z,17.60
2022-09-15T08:55:50.610Z,17.80
2022-09-15T08:58:24.427Z,17.90
2022-09-15T09:01:16.714Z,18.00
2022-09-15T09:03:53.115Z,18.00
2022-09-15T09:06:32.566Z,18.10
2022-09-15T09:09:21.442Z,18.20
2022-09-15T09:12:09.129Z,18.10
2022-09-15T09:14:53.939Z,18.10
2022-09-15T09:17:43.037Z,18.20
2022-09-15T09:20:43.677Z,18.40
2022-09-15T09:23:17.210Z,18.50
2022-09-15T09:25:44.908Z,18.70
2022-09-15T09:28:28.506Z,18.80
2022-09-15T09:31:08.402Z,19.00
2022-09-15T09:33:47.523Z,19.20
2022-09-15T09:36:15.384Z,19.40
2022-09-15T09:38:45.347Z,19.50
2022-09-15T09:41:18.677Z,19.70
2022-09-15T09:43:48.874Z,19.90
2022-09-15T09:46:18.190Z,20.00
2022-09-15T09:48:58.849Z,19.90
2022-09-15T09:51:36.169Z,19.80
2022-09-15T09:54:11.831Z,19.80
2022-09-15T09:56:40.085Z,19.80
2022-09-15T09:59:37.575Z,19.90
2022-09-15T10:02:06.877Z,19.70
2022-09-15T10:04:33.932Z,19.70
2022-09-15T10:07:01.001Z,19.60
2022-09-15T10:09:33.148Z,19.70
2022-09-15T10:12:04.111Z,20.00
2022-09-15T10:14:32.069Z,20.20
2022-09-15T10:17:05.325Z,20.50
2022-09-15T10:19:36.732Z,20.80
2022-09-15T10:22:05.286Z,21.00
2022-09-15T10:24:38.747Z,21.00
2022-09-15T10:27:28.317Z,21.00
2022-09-15T10:29:56.043Z,20.90
2022-09-15T10:32:31.721Z,20.80
2022-09-15T10:35:19.765Z,20.80
2022-09-15T10:37:52.533Z,20.70
2022-09-15T10:40:46.452Z,20.60
2022-09-15T10:43:33.225Z,20.50
2022-09-15T10:46:26.095Z,20.60
2022-09-15T10:49:04.675Z,20.60
2022-09-15T10:51:53.736Z,20.70
2022-09-15T10:54:58.613Z,20.90
2022-09-15T10:57:46.865Z,21.20
2022-09-15T11:00:22.569Z,21.40
2022-09-15T11:03:08.428Z,21.90
2022-09-15T11:05:43.491Z,22.20
2022-09-15T11:08:38.952Z,22.90
2022-09-15T11:11:10.031Z,23.20
2022-09-15T11:13:42.822Z,23.70
2022-09-15T11:16:26.588Z,23.70
2022-09-15T11:19:21.559Z,23.70
2022-09-15T11:21:58.227Z,23.40
2022-09-15T11:24:52.342Z,23.10
2022-09-15T11:27:32.210Z,23.20
2022-09-15T11:30:07.159Z,23.40
2022-09-15T11:32:43.055Z,23.10
2022-09-15T11:35:37.344Z,23.00
2022-09-15T11:38:28.454Z,22.90
2022-09-15T11:41:20.188Z,22.80
2022-09-15T11:44:07.592Z,22.70
2022-09-15T11:47:02.284Z,22.80
2022-09-15T11:49:45.456Z,23.00
2022-09-15T11:52:34.122Z,23.00
2022-09-15T11:55:40.408Z,22.70
2022-09-15T11:58:29.519Z,22.60
2022-09-15T12:01:09.054Z,22.20
2022-09-15T12:03:45.131Z,22.00
2022-09-15T12:06:32.217Z,22.00
2022-09-15T12:09:07.338Z,22.00
2022-09-15T12:11:42.995Z,21.90
2022-09-15T12:14:27.202Z,21.90
2022-09-15T12:16:54.693Z,21.80
2022-09-15T12:19:37.403Z,21.70
2022-09-15T12:22:27.118Z,21.60
2022-09-15T12:25:09.492Z,21.70
2022-09-15T12:27:36.382Z,22.00
2022-09-15T12:30:04.643Z,22.50
2022-09-15T12:32:39.144Z,22.70
2022-09-15T12:35:18.255Z,22.80
2022-09-15T12:37:53.763Z,22.70
2022-09-15T12:40:38.231Z,22.40
2022-09-15T12:43:11.608Z,22.20
2022-09-15T12:45:40.053Z,21.90
2022-09-15T12:48:14.935Z,21.70
2022-09-15T12:50:43.695Z,21.40
2022-09-15T12:56:21.695Z,21.20
2022-09-15T12:58:49.905Z,21.20
2022-09-15T13:01:23.020Z,21.10
2022-09-15T13:04:09.972Z,21.50
2022-09-15T13:06:37.938Z,22.10
2022-09-15T13:09:07.776Z,22.20
2022-09-15T13:11:36.996Z,22.30
2022-09-15T13:14:04.183Z,22.40
2022-09-15T13:16:54.932Z,22.50
2022-09-15T13:19:36.021Z,22.60
2022-09-15T13:22:20.202Z,23.70
2022-09-15T13:25:04.723Z,24.10
2022-09-15T13:27:36.485Z,24.30
2022-09-15T13:30:29.317Z,24.10
2022-09-15T13:33:23.934Z,23.80
2022-09-15T13:36:06.857Z,23.40
2022-09-15T13:39:05.717Z,23.50
2022-09-15T13:41:57.709Z,24.40
2022-09-15T13:44:36.778Z,25.30
2022-09-15T13:47:18.015Z,25.20
2022-09-15T13:49:48.726Z,24.50
2022-09-15T13:52:18.688Z,23.90
2022-09-15T13:55:26.398Z,23.40
2022-09-15T14:00:49.229Z,22.20
2022-09-15T14:03:25.752Z,21.70
2022-09-15T14:05:54.324Z,21.30
2022-09-15T14:08:22.969Z,21.00
2022-09-15T14:10:56.974Z,20.70
2022-09-15T14:13:26.791Z,20.50
2022-09-15T14:16:01.339Z,20.50
2022-09-15T14:18:29.643Z,20.40
2022-09-15T14:21:05.245Z,20.40
2022-09-15T14:23:32.927Z,20.40
2022-09-15T14:26:01.158Z,20.30
2022-09-15T14:28:33.472Z,20.20
2022-09-15T14:31:02.043Z,20.20
2022-09-15T14:33:38.047Z,20.10
2022-09-15T14:36:22.708Z,20.00
2022-09-15T14:39:08.934Z,19.90
2022-09-15T14:41:36.713Z,19.80
2022-09-15T14:47:28.742Z,19.90
2022-09-15T14:50:19.467Z,19.90
2022-09-15T14:53:04.359Z,19.90
2022-09-15T14:55:52.774Z,19.90
2022-09-15T14:58:44.583Z,19.90
2022-09-15T15:01:13.986Z,20.00
2022-09-15T15:03:58.043Z,20.10
2022-09-15T15:06:29.311Z,20.10
2022-09-15T15:09:21.460Z,20.40
2022-09-15T15:11:57.091Z,20.30
2022-09-15T15:14:24.385Z,20.30
2022-09-15T15:17:00.537Z,20.20
2022-09-15T15:19:41.743Z,20.00
2022-09-15T15:22:20.654Z,20.00
2022-09-15T15:24:53.038Z,20.00
2022-09-15T15:27:35.147Z,20.00
2022-09-15T15:30:30.719Z,19.90
2022-09-15T15:32:57.767Z,19.90
2022-09-15T15:35:25.333Z,19.90
2022-09-15T15:38:25.519Z,19.90
2022-09-15T15:41:01.495Z,19.80
2022-09-15T15:43:29.024Z,19.80
2022-09-15T15:46:04.505Z,19.70
2022-09-15T15:48:38.332Z,19.80
2022-09-15T15:51:07.487Z,19.70
2022-09-15T15:53:35.108Z,19.70
2022-09-15T15:56:02.429Z,19.60
2022-09-15T15:58:29.349Z,19.60
2022-09-15T16:00:57.430Z,19.70
2022-09-15T16:03:25.701Z,19.70
2022-09-15T16:06:00.325Z,19.70
2022-09-15T16:08:31.940Z,19.60
2022-09-15T16:11:01.560Z,19.60
2022-09-15T16:13:29.090Z,19.70
2022-09-15T16:15:58.109Z,19.80
2022-09-15T16:18:25.273Z,19.90
2022-09-15T16:20:52.843Z,19.90
2022-09-15T16:23:22.795Z,20.00
2022-09-15T16:26:08.138Z,20.00
2022-09-15T16:28:35.068Z,20.00
2022-09-15T16:31:02.192Z,20.00
2022-09-15T16:33:29.547Z,20.00
2022-09-15T16:36:06.888Z,20.00
2022-09-15T16:38:35.131Z,20.00
2022-09-15T16:41:03.710Z,19.90
2022-09-15T16:43:30.734Z,19.90
2022-09-15T16:45:57.898Z,19.90
2022-09-15T16:48:25.344Z,19.80
2022-09-15T16:53:40.007Z,19.70
2022-09-15T16:56:10.578Z,19.70
2022-09-15T16:58:37.504Z,19.60
2022-09-15T17:01:04.950Z,19.60
2022-09-15T17:03:32.028Z,19.50
2022-09-15T17:06:00.983Z,19.40
2022-09-15T17:08:33.033Z,19.30
2022-09-15T17:11:04.007Z,19.20
2022-09-15T17:13:33.534Z,19.00
2022-09-15T17:16:01.738Z,18.90
2022-09-15T17:18:29.441Z,18.80
2022-09-15T17:20:57.031Z,18.70
2022-09-15T17:23:35.411Z,18.60
2022-09-15T17:26:10.697Z,18.50
2022-09-15T17:28:37.691Z,18.50
2022-09-15T17:31:16.912Z,18.40
2022-09-15T17:33:44.491Z,18.40
2022-09-15T17:36:12.223Z,18.40
2022-09-15T17:38:41.197Z,18.30
2022-09-15T17:41:17.237Z,18.20
2022-09-15T17:43:44.614Z,18.20
2022-09-15T17:46:12.216Z,18.20
2022-09-15T17:48:39.357Z,18.10
2022-09-15T17:51:07.740Z,18.10
2022-09-15T17:53:34.744Z,18.10
2022-09-15T17:56:01.860Z,18.00
2022-09-15T17:58:31.448Z,18.00
2022-09-15T18:00:59.354Z,18.00
2022-09-15T18:03:33.374Z,18.00
2022-09-15T18:06:03.819Z,17.80
2022-09-15T18:08:32.857Z,17.80
2022-09-15T18:11:01.055Z,17.60
2022-09-15T18:13:30.148Z,17.40
2022-09-15T18:15:58.379Z,17.40
2022-09-15T18:18:27.522Z,17.30
2022-09-15T18:20:57.952Z,17.20
2022-09-15T18:23:28.462Z,17.10
2022-09-15T18:25:55.559Z,17.00
2022-09-15T18:28:22.605Z,16.90
2022-09-15T18:30:50.616Z,16.90
2022-09-15T18:33:19.894Z,16.90
2022-09-15T18:35:48.384Z,16.90
2022-09-15T18:38:16.469Z,16.80
2022-09-15T18:40:49.408Z,16.80
2022-09-15T18:43:17.980Z,16.80
2022-09-15T18:45:45.437Z,16.80
2022-09-15T18:48:13.475Z,16.80
2022-09-15T18:50:41.914Z,16.70
2022-09-15T18:53:09.232Z,16.70
2022-09-15T18:55:36.309Z,16.60
2022-09-15T18:58:03.349Z,16.50
2022-09-15T19:00:31.842Z,16.50
2022-09-15T19:03:01.357Z,16.50
2022-09-15T19:05:29.574Z,16.50
2022-09-15T19:07:57.418Z,16.50
2022-09-15T19:10:25.410Z,16.50
2022-09-15T19:12:52.802Z,16.50
2022-09-15T19:15:23.709Z,16.50
2022-09-15T19:17:51.557Z,16.50
2022-09-15T19:20:18.546Z,16.40
2022-09-15T19:22:46.179Z,16.40
2022-09-15T19:25:13.554Z,16.30
2022-09-15T19:27:41.350Z,16.30
2022-09-15T19:30:10.337Z,16.30
2022-09-15T19:32:37.840Z,16.20
2022-09-15T19:35:05.468Z,16.20
2022-09-15T19:37:37.536Z,16.20
2022-09-15T19:40:10.255Z,16.10
2022-09-15T19:42:39.087Z,16.10
2022-09-15T19:45:07.172Z,16.00
2022-09-15T19:47:34.468Z,16.00
2022-09-15T19:50:01.573Z,16.00
2022-09-15T19:52:28.895Z,15.90
2022-09-15T19:54:55.931Z,15.90
2022-09-15T19:57:23.277Z,15.90
2022-09-15T19:59:50.968Z,15.80
2022-09-15T20:02:18.054Z,15.80
2022-09-15T20:04:45.098Z,15.80
2022-09-15T20:07:12.722Z,15.80
2022-09-15T20:09:39.744Z,15.80
2022-09-15T20:12:07.257Z,15.80
2022-09-15T20:14:34.301Z,15.80
2022-09-15T20:17:01.898Z,15.70
2022-09-15T20:19:29.565Z,15.70
2022-09-15T20:21:56.811Z,15.70
2022-09-15T20:24:24.808Z,15.70
2022-09-15T20:26:52.982Z,15.60
2022-09-15T20:29:20.562Z,15.60
2022-09-15T20:31:47.953Z,15.60
2022-09-15T20:34:15.142Z,15.60
2022-09-15T20:36:42.181Z,15.60
2022-09-15T20:39:13.386Z,15.60
2022-09-15T20:41:45.014Z,15.60
2022-09-15T20:44:12.607Z,15.70
2022-09-15T20:46:39.952Z,15.80
2022-09-15T20:49:07.852Z,15.80
2022-09-15T20:51:34.980Z,15.80
2022-09-15T20:54:03.822Z,15.90
2022-09-15T20:56:34.877Z,16.00
2022-09-15T20:59:02.424Z,16.00
2022-09-15T21:01:34.493Z,16.00
2022-09-15T21:04:01.649Z,16.00
2022-09-15T21:06:29.384Z,16.10
2022-09-15T21:08:57.832Z,16.00
2022-09-15T21:11:26.747Z,16.10
2022-09-15T21:13:54.633Z,16.10
2022-09-15T21:16:27.584Z,16.10
2022-09-15T21:18:55.816Z,16.10
2022-09-15T21:21:25.231Z,16.10
2022-09-15T21:23:57.417Z,16.10
2022-09-15T21:26:26.796Z,16.00
2022-09-15T21:28:54.741Z,16.00
2022-09-15T21:31:26.275Z,16.00
2022-09-15T21:33:54.566Z,16.10
2022-09-15T21:36:27.706Z,16.00
2022-09-15T21:38:56.549Z,16.00
2022-09-15T21:41:26.172Z,16.00
2022-09-15T21:43:55.154Z,16.00
2022-09-15T21:46:24.474Z,16.00
2022-09-15T21:48:51.873Z,16.00
2022-09-15T21:51:24.640Z,16.00
2022-09-15T21:53:54.314Z,16.00
2022-09-15T21:56:22.292Z,16.00
2022-09-15T21:58:49.517Z,16.00
2022-09-15T22:01:23.804Z,15.90
2022-09-15T22:04:01.559Z,15.90
2022-09-15T22:06:32.039Z,15.90
2022-09-15T22:09:05.102Z,15.90
2022-09-15T22:11:32.915Z,15.90
2022-09-15T22:14:03.125Z,15.80
2022-09-15T22:16:30.572Z,15.80
2022-09-15T22:18:57.665Z,15.80
2022-09-15T22:21:31.309Z,15.80
2022-09-15T22:23:59.509Z,15.80
2022-09-15T22:26:31.765Z,15.70
2022-09-15T22:28:59.797Z,15.70
2022-09-15T22:31:28.254Z,15.70
2022-09-15T22:33:56.132Z,15.70
2022-09-15T22:36:29.289Z,15.70
2022-09-15T22:39:04.018Z,15.60
2022-09-15T22:41:39.031Z,15.60
2022-09-15T22:44:07.329Z,15.60
2022-09-15T22:46:34.493Z,15.60
2022-09-15T22:49:01.686Z,15.60
2022-09-15T22:51:29.006Z,15.60
2022-09-15T22:53:57.397Z,15.50
2022-09-15T22:56:26.616Z,15.60
2022-09-15T22:58:54.313Z,15.50
2022-09-15T23:01:23.918Z,15.40
2022-09-15T23:03:52.639Z,15.40
2022-09-15T23:06:20.744Z,15.40
2022-09-15T23:08:57.037Z,15.40
2022-09-15T23:11:24.745Z,15.40
2022-09-15T23:13:53.388Z,15.40
2022-09-15T23:16:21.785Z,15.40
2022-09-15T23:18:49.225Z,15.30
2022-09-15T23:21:16.198Z,15.30
2022-09-15T23:23:45.529Z,15.30
2022-09-15T23:26:13.749Z,15.30
2022-09-15T23:28:40.718Z,15.30
2022-09-15T23:31:08.851Z,15.30
2022-09-15T23:33:36.055Z,15.30
2022-09-15T23:36:06.142Z,15.30
2022-09-15T23:38:36.231Z,15.30
2022-09-15T23:41:03.263Z,15.30
2022-09-15T23:43:30.333Z,15.30
2022-09-15T23:45:57.277Z,15.30
2022-09-15T23:48:24.228Z,15.30
2022-09-15T23:50:51.354Z,15.30
2022-09-15T23:53:18.935Z,15.20
2022-09-15T23:55:47.572Z,15.20
2022-09-15T23:58:14.524Z,15.20
